Time;durP1;ratioP1;P1;durP2;ratioP2;P2;SDS_P1;SDS_P2;PMS_P1;PMS_P2;Temp;Humidity;BMP_temperature;BMP_pressure;BME280_temperature;BME280_humidity;BME280_pressure;Samples;Min_cycle;Max_cycle;Signal;HPM_P1;HPM_P2
2022/06/17 00:01:00;;;;;;;24.63;12.83;;;14.00;99.90;;;;;;4824129;29;20671;-59
2022/06/17 00:03:28;;;;;;;29.33;11.67;;;14.00;99.90;;;;;;4824456;29;20186;-59
2022/06/17 00:06:00;;;;;;;25.73;12.90;;;14.00;99.90;;;;;;4824128;29;20233;-59
2022/06/17 00:08:31;;;;;;;26.60;12.33;;;14.00;99.90;;;;;;4824403;29;20226;-59
2022/06/17 00:10:57;;;;;;;22.27;12.27;;;14.00;99.90;;;;;;4835373;29;20190;-59
2022/06/17 00:13:24;;;;;;;27.63;13.03;;;13.90;99.90;;;;;;4842571;29;20204;-60
2022/06/17 00:15:51;;;;;;;30.83;13.73;;;13.90;99.90;;;;;;4842186;29;20290;-59
2022/06/17 00:18:18;;;;;;;23.43;12.67;;;13.80;99.90;;;;;;4842645;29;20194;-59
2022/06/17 00:20:45;;;;;;;26.33;14.80;;;13.80;99.90;;;;;;4842455;29;20513;-60
2022/06/17 00:23:17;;;;;;;27.77;14.37;;;13.70;99.90;;;;;;4842403;29;20722;-59
2022/06/17 00:25:45;;;;;;;30.63;15.20;;;13.70;99.90;;;;;;4842469;29;20185;-58
2022/06/17 00:28:12;;;;;;;25.57;14.73;;;13.70;99.90;;;;;;4841646;29;20282;-60
2022/06/17 00:30:39;;;;;;;24.10;13.97;;;13.70;99.90;;;;;;4807985;29;20214;-59
2022/06/17 00:33:05;;;;;;;24.17;13.33;;;13.70;99.90;;;;;;4823727;29;20240;-58
2022/06/17 00:35:37;;;;;;;27.10;13.87;;;13.70;99.90;;;;;;4824275;29;20187;-58
2022/06/17 00:38:04;;;;;;;24.70;14.10;;;13.60;99.90;;;;;;4823509;29;20663;-59
2022/06/17 00:40:33;;;;;;;28.23;14.07;;;13.60;99.90;;;;;;4823981;29;20185;-59
2022/06/17 00:43:02;;;;;;;28.83;13.77;;;13.50;99.90;;;;;;4823149;29;20259;-59
2022/06/17 00:45:37;;;;;;;25.50;15.13;;;13.50;99.90;;;;;;4823854;29;20184;-58
2022/06/17 00:48:06;;;;;;;24.10;13.50;;;13.50;99.90;;;;;;4823306;29;20218;-58
2022/06/17 00:50:41;;;;;;;32.30;15.40;;;13.50;99.90;;;;;;4823840;29;20216;-58
2022/06/17 00:53:19;;;;;;;22.03;14.80;;;13.50;99.90;;;;;;4823435;29;20233;-59
2022/06/17 00:55:59;;;;;;;27.40;14.77;;;13.40;99.90;;;;;;4823735;29;20663;-60
2022/06/17 00:58:30;;;;;;;25.80;14.90;;;13.40;99.90;;;;;;4823844;29;20564;-60
2022/06/17 01:01:00;;;;;;;29.23;15.60;;;13.40;99.90;;;;;;4823379;29;20713;-59
2022/06/17 01:03:33;;;;;;;26.03;15.37;;;13.40;99.90;;;;;;4823376;29;20254;-60
2022/06/17 01:06:07;;;;;;;25.17;13.37;;;13.40;99.90;;;;;;4823335;29;20190;-58
2022/06/17 01:11:42;;;;;;;24.30;13.53;;;13.40;99.90;;;;;;4840315;29;20218;-59
2022/06/17 01:14:12;;;;;;;21.13;14.03;;;13.30;99.90;;;;;;4841251;29;20237;-60
2022/06/17 01:16:41;;;;;;;25.00;13.60;;;13.30;99.90;;;;;;4825253;29;20222;-59
2022/06/17 01:19:35;;;;;;;29.33;13.83;;;13.30;99.90;;;;;;4841048;29;20513;-60
2022/06/17 01:22:25;;;;;;;28.37;14.47;;;13.20;99.90;;;;;;4841317;29;20274;-59
2022/06/17 01:25:04;;;;;;;23.90;13.03;;;13.20;99.90;;;;;;4841262;29;20301;-63
2022/06/17 01:27:41;;;;;;;27.23;14.97;;;13.20;99.90;;;;;;4841323;29;20265;-59
2022/06/17 01:30:11;;;;;;;23.70;14.57;;;13.20;99.90;;;;;;4855685;29;20205;-59
2022/06/17 01:32:56;;;;;;;30.60;14.53;;;13.20;99.90;;;;;;4859767;29;20184;-59
2022/06/17 01:35:25;;;;;;;21.63;13.57;;;13.20;99.90;;;;;;4859552;29;20256;-60
2022/06/17 01:37:51;;;;;;;27.20;14.40;;;13.20;99.90;;;;;;4859407;29;20197;-67
2022/06/17 01:40:19;;;;;;;21.60;14.47;;;13.20;99.90;;;;;;4859678;29;20224;-59
2022/06/17 01:42:45;;;;;;;23.70;13.53;;;13.20;99.90;;;;;;4859896;29;20533;-59
2022/06/17 01:45:12;;;;;;;24.80;13.73;;;13.20;99.90;;;;;;4859345;29;20219;-59
2022/06/17 01:47:40;;;;;;;26.20;14.13;;;13.20;99.90;;;;;;4859665;29;20272;-59
2022/06/17 01:50:11;;;;;;;28.53;14.63;;;13.20;99.90;;;;;;4859342;29;20191;-58
2022/06/17 01:52:43;;;;;;;26.03;14.10;;;13.10;99.90;;;;;;4859603;29;20196;-60
2022/06/17 01:55:21;;;;;;;24.93;13.20;;;13.10;99.90;;;;;;4863075;29;20187;-59
2022/06/17 01:58:05;;;;;;;25.53;15.40;;;13.10;99.90;;;;;;4865484;29;20302;-59
2022/06/17 02:00:32;;;;;;;26.40;14.07;;;13.10;99.90;;;;;;4865856;29;20188;-60
2022/06/17 02:03:10;;;;;;;27.07;14.90;;;13.10;99.90;;;;;;4865249;29;20196;-59
2022/06/17 02:05:38;;;;;;;30.53;14.07;;;13.10;99.90;;;;;;4865617;29;20181;-58
2022/06/17 02:08:04;;;;;;;23.70;13.47;;;13.00;99.90;;;;;;4865159;29;20222;-59
2022/06/17 02:10:38;;;;;;;27.67;14.13;;;13.10;99.90;;;;;;4857233;29;20661;-59
2022/06/17 02:13:05;;;;;;;23.60;14.70;;;13.00;99.90;;;;;;4846200;29;20290;-59
2022/06/17 02:15:33;;;;;;;22.93;13.77;;;13.10;99.90;;;;;;4847058;29;20526;-57
2022/06/17 02:18:00;;;;;;;23.73;13.40;;;13.10;99.90;;;;;;4846525;29;20264;-59
2022/06/17 02:20:26;;;;;;;26.53;14.10;;;13.10;99.90;;;;;;4846675;29;20191;-59
2022/06/17 02:22:55;;;;;;;23.37;13.67;;;13.10;99.90;;;;;;4830071;29;20186;-59
2022/06/17 02:25:44;;;;;;;25.93;13.40;;;13.10;99.90;;;;;;4847125;29;20177;-60
2022/06/17 02:28:10;;;;;;;28.30;13.47;;;13.10;99.90;;;;;;4845984;29;20263;-60
2022/06/17 02:30:37;;;;;;;23.67;13.73;;;13.00;99.90;;;;;;4828479;29;20202;-59
2022/06/17 02:33:05;;;;;;;20.63;12.70;;;13.00;99.90;;;;;;4828577;29;20205;-61
2022/06/17 02:35:43;;;;;;;24.87;13.57;;;13.00;99.90;;;;;;4828259;29;20198;-59
2022/06/17 02:38:18;;;;;;;19.77;13.13;;;13.00;99.90;;;;;;4828500;29;20188;-58
2022/06/17 02:40:51;;;;;;;28.27;13.57;;;13.00;99.90;;;;;;4827280;29;20208;-59
2022/06/17 02:43:24;;;;;;;34.07;14.10;;;13.00;99.90;;;;;;4828154;29;20181;-59
2022/06/17 02:45:54;;;;;;;24.40;13.37;;;13.10;99.90;;;;;;4828392;29;20182;-60
2022/06/17 02:48:31;;;;;;;36.90;15.90;;;13.10;99.90;;;;;;4828253;29;20229;-59
2022/06/17 02:50:59;;;;;;;34.70;14.80;;;13.10;99.90;;;;;;4827932;29;20190;-58
2022/06/17 02:53:37;;;;;;;26.37;13.37;;;13.10;99.90;;;;;;4828292;29;20195;-59
2022/06/17 02:56:07;;;;;;;28.90;13.27;;;13.10;99.90;;;;;;4827914;29;20271;-60
2022/06/17 02:58:52;;;;;;;25.27;13.37;;;13.10;99.90;;;;;;4828219;29;20191;-58
2022/06/17 03:01:27;;;;;;;25.23;13.77;;;13.10;99.90;;;;;;4828020;29;20686;-58
2022/06/17 03:03:55;;;;;;;27.33;14.47;;;13.20;99.90;;;;;;4828166;29;20203;-58
2022/06/17 03:06:36;;;;;;;29.07;12.53;;;13.20;99.90;;;;;;4826434;29;20186;-59
2022/06/17 03:09:25;;;;;;;26.47;13.40;;;13.30;99.90;;;;;;4825180;29;20231;-58
2022/06/17 03:12:21;;;;;;;31.13;13.67;;;13.30;99.90;;;;;;4843538;29;20220;-60
2022/06/17 03:15:11;;;;;;;24.27;13.10;;;13.40;99.90;;;;;;4843480;29;20190;-62
2022/06/17 03:17:40;;;;;;;30.23;13.53;;;13.50;99.90;;;;;;4843691;29;20189;-58
2022/06/17 03:20:10;;;;;;;26.80;13.60;;;13.50;99.90;;;;;;4842963;29;20622;-59
2022/06/17 03:22:36;;;;;;;25.83;12.43;;;13.60;99.90;;;;;;4843385;29;20265;-60
2022/06/17 03:25:04;;;;;;;21.63;12.03;;;13.70;99.90;;;;;;4842907;29;20182;-59
2022/06/17 03:27:46;;;;;;;25.53;12.83;;;13.70;99.90;;;;;;4842905;29;20301;-61
2022/06/17 03:30:17;;;;;;;22.63;12.97;;;13.80;99.90;;;;;;4857863;29;20676;-60
2022/06/17 03:32:45;;;;;;;20.93;11.93;;;13.80;99.90;;;;;;4861571;29;20184;-59
2022/06/17 03:35:20;;;;;;;21.97;12.20;;;13.80;99.90;;;;;;4861308;29;20259;-61
2022/06/17 03:38:02;;;;;;;19.77;11.07;;;13.90;99.90;;;;;;4861323;29;20190;-59
2022/06/17 03:40:33;;;;;;;23.07;11.43;;;14.00;99.90;;;;;;4861472;29;20278;-60
2022/06/17 03:43:19;;;;;;;17.83;10.93;;;14.00;99.90;;;;;;4861568;29;20571;-60
2022/06/17 03:46:03;;;;;;;26.83;12.30;;;14.10;99.90;;;;;;4861591;29;20205;-59
2022/06/17 03:48:45;;;;;;;17.60;9.70;;;14.20;99.90;;;;;;4861068;29;20217;-60
2022/06/17 03:51:16;;;;;;;23.93;9.87;;;14.30;99.90;;;;;;4861154;29;20246;-59
2022/06/17 03:53:44;;;;;;;18.30;10.17;;;14.30;99.90;;;;;;4860959;29;20254;-59
2022/06/17 03:56:28;;;;;;;31.00;11.53;;;14.40;99.90;;;;;;4860585;29;20216;-59
2022/06/17 03:58:58;;;;;;;18.47;9.10;;;14.50;99.90;;;;;;4860853;29;20204;-59
2022/06/17 04:01:34;;;;;;;23.23;10.57;;;14.50;99.90;;;;;;4860681;29;20181;-59
2022/06/17 04:04:04;;;;;;;17.67;9.53;;;14.60;99.90;;;;;;4860638;29;20177;-62
2022/06/17 04:06:37;;;;;;;33.57;11.60;;;14.60;99.90;;;;;;4860512;29;20189;-59
2022/06/17 04:09:12;;;;;;;16.40;9.53;;;14.70;99.90;;;;;;4860222;29;20193;-59
2022/06/17 04:11:39;;;;;;;24.47;11.23;;;14.70;99.90;;;;;;4843891;29;20245;-60
2022/06/17 04:14:14;;;;;;;21.77;11.40;;;14.80;99.90;;;;;;4841455;29;20190;-59
2022/06/17 04:17:08;;;;;;;26.67;12.27;;;15.00;99.90;;;;;;4842075;29;20185;-59
2022/06/17 04:19:34;;;;;;;23.07;11.13;;;15.10;99.90;;;;;;4841828;29;20177;-59
2022/06/17 04:22:13;;;;;;;18.10;10.80;;;15.30;99.90;;;;;;4841596;29;20209;-61
2022/06/17 04:24:40;;;;;;;23.60;10.23;;;15.60;99.90;;;;;;4841926;29;20178;-59
2022/06/17 04:27:10;;;;;;;20.67;10.87;;;15.80;99.90;;;;;;4841399;29;20209;-59
2022/06/17 04:29:41;;;;;;;26.53;12.43;;;16.00;99.90;;;;;;4867788;29;20236;-60
2022/06/17 04:32:19;;;;;;;18.50;9.97;;;16.30;99.90;;;;;;4877932;29;20243;-58
2022/06/17 04:34:45;;;;;;;18.80;9.83;;;16.60;99.90;;;;;;4878734;29;20183;-59
2022/06/17 04:37:19;;;;;;;14.97;8.13;;;16.70;99.90;;;;;;4878225;29;20180;-61
2022/06/17 04:39:54;;;;;;;12.33;8.07;;;16.90;99.90;;;;;;4878000;29;20198;-58
2022/06/17 04:42:23;;;;;;;15.90;8.63;;;17.00;99.90;;;;;;4860892;29;20324;-60
2022/06/17 04:44:50;;;;;;;13.50;7.00;;;17.20;99.90;;;;;;4877926;29;20192;-61
2022/06/17 04:47:20;;;;;;;15.27;8.03;;;17.40;99.90;;;;;;4877153;29;20307;-59
2022/06/17 04:49:54;;;;;;;15.13;7.13;;;17.60;99.90;;;;;;4877327;29;20220;-59
2022/06/17 04:52:27;;;;;;;10.97;6.50;;;17.80;99.90;;;;;;4877041;29;20274;-59
2022/06/17 04:54:57;;;;;;;15.80;7.00;;;17.90;99.90;;;;;;4876840;29;20316;-61
2022/06/17 04:57:23;;;;;;;10.77;5.80;;;17.90;99.90;;;;;;4877552;29;20279;-58
2022/06/17 04:59:49;;;;;;;13.87;5.97;;;18.00;99.90;;;;;;4860719;29;20352;-61
2022/06/17 05:02:23;;;;;;;14.43;6.63;;;17.90;99.90;;;;;;4860454;29;20193;-60
2022/06/17 05:04:51;;;;;;;12.97;6.90;;;17.80;99.90;;;;;;4877464;29;20222;-60
2022/06/17 05:07:18;;;;;;;19.57;7.97;;;17.80;99.90;;;;;;4876786;29;20313;-59
2022/06/17 05:09:54;;;;;;;17.23;7.50;;;17.90;99.90;;;;;;4871217;29;20208;-63
2022/06/17 05:12:27;;;;;;;16.47;7.43;;;18.00;99.90;;;;;;4852648;29;20348;-65
2022/06/17 05:15:01;;;;;;;17.23;7.67;;;18.10;99.90;;;;;;4853819;29;20237;-59
2022/06/17 05:17:27;;;;;;;21.13;8.03;;;18.30;99.90;;;;;;4857085;29;20216;-60
2022/06/17 05:19:53;;;;;;;17.23;7.53;;;18.40;99.90;;;;;;4852170;29;20212;-60
2022/06/17 05:22:39;;;;;;;17.90;7.83;;;18.50;99.90;;;;;;4855627;29;20208;-60
2022/06/17 05:25:22;;;;;;;21.90;7.20;;;18.60;99.90;;;;;;4839836;29;20192;-59
2022/06/17 05:27:48;;;;;;;19.08;8.05;;;18.90;99.90;;;;;;4841362;29;20626;-61
2022/06/17 05:30:14;;;;;;;21.60;8.55;;;19.20;99.90;;;;;;4856805;29;20232;-61
2022/06/17 05:32:46;;;;;;;14.70;7.10;;;19.30;99.90;;;;;;4856500;29;20189;-62
2022/06/17 05:35:12;;;;;;;23.00;7.88;;;19.30;99.90;;;;;;4852228;29;20193;-63
2022/06/17 05:37:38;;;;;;;16.10;6.90;;;19.50;99.90;;;;;;4849797;29;20292;-65
2022/06/17 05:40:08;;;;;;;11.80;6.30;;;19.60;99.90;;;;;;4850909;29;20196;-61
2022/06/17 05:42:37;;;;;;;13.07;6.47;;;19.90;99.90;;;;;;4857039;29;20192;-59
2022/06/17 05:45:04;;;;;;;22.10;7.35;;;20.20;99.90;;;;;;4824855;29;20587;-73
2022/06/17 05:47:30;;;;;;;15.60;6.80;;;20.30;99.90;;;;;;4844784;29;20233;-63
2022/06/17 05:49:55;;;;;;;17.15;6.78;;;20.40;99.90;;;;;;4850254;29;20261;-69
2022/06/17 05:52:21;;;;;;;20.35;6.20;;;20.60;99.90;;;;;;4831700;29;20275;-64
2022/06/17 05:54:47;;;;;;;15.23;5.68;;;20.80;99.90;;;;;;4843025;29;20742;-67
2022/06/17 05:57:13;;;;;;;15.07;5.63;;;20.90;99.90;;;;;;4843773;29;20218;-62
2022/06/17 05:59:39;;;;;;;17.48;7.32;;;21.10;99.80;;;;;;4844457;29;20197;-59
2022/06/17 06:02:06;;;;;;;13.38;5.85;;;21.30;99.20;;;;;;4855368;29;20296;-61
2022/06/17 06:04:32;;;;;;;13.52;5.50;;;21.20;98.70;;;;;;4838312;29;20197;-61
2022/06/17 06:06:59;;;;;;;15.30;5.78;;;21.30;98.60;;;;;;4854123;29;20231;-62
2022/06/17 06:09:25;;;;;;;11.23;5.40;;;21.20;98.90;;;;;;4856926;29;20276;-58
2022/06/17 06:11:52;;;;;;;16.65;6.72;;;20.90;99.40;;;;;;4857500;29;20268;-66
2022/06/17 06:14:17;;;;;;;13.32;7.63;;;20.90;99.90;;;;;;4849194;29;20512;-62
2022/06/17 06:16:43;;;;;;;16.10;8.10;;;20.70;99.90;;;;;;4839218;29;20202;-62
2022/06/17 06:19:09;;;;;;;18.55;8.43;;;20.60;99.90;;;;;;4842092;29;20325;-61
2022/06/17 06:21:35;;;;;;;17.50;8.73;;;20.20;99.90;;;;;;4852261;29;20583;-61
2022/06/17 06:24:00;;;;;;;17.25;9.07;;;20.10;99.90;;;;;;4823109;29;20194;-61
2022/06/17 06:26:26;;;;;;;21.85;9.60;;;19.90;99.90;;;;;;4856880;29;20205;-66
2022/06/17 06:28:52;;;;;;;19.88;8.90;;;19.90;99.90;;;;;;4841571;29;20285;-67
2022/06/17 06:31:28;;;;;;;16.73;8.85;;;19.90;99.90;;;;;;4821405;29;20206;-71
2022/06/17 06:33:54;;;;;;;17.05;8.80;;;20.00;99.90;;;;;;4821796;29;20190;-67
2022/06/17 06:36:20;;;;;;;21.15;9.95;;;20.10;99.90;;;;;;4823247;29;20302;-67
2022/06/17 06:38:46;;;;;;;20.83;9.52;;;19.90;99.90;;;;;;4839771;29;20272;-64
2022/06/17 06:41:12;;;;;;;23.30;11.02;;;20.20;99.90;;;;;;4840933;29;20272;-60
2022/06/17 06:43:39;;;;;;;21.88;9.80;;;20.10;99.90;;;;;;4842098;29;20206;-71
2022/06/17 06:46:08;;;;;;;25.13;9.57;;;20.00;99.90;;;;;;4825661;29;20190;-73
2022/06/17 06:48:35;;;;;;;23.95;9.63;;;20.00;99.90;;;;;;4840439;29;20239;-68
2022/06/17 06:51:01;;;;;;;24.08;9.50;;;20.10;99.90;;;;;;4842324;29;20285;-67
2022/06/17 06:53:26;;;;;;;14.43;7.30;;;20.20;99.90;;;;;;4825697;29;20616;-68
2022/06/17 06:55:52;;;;;;;16.13;8.32;;;20.40;99.90;;;;;;4841754;29;20234;-68
2022/06/17 06:58:22;;;;;;;11.50;6.63;;;20.60;99.90;;;;;;4842061;29;20197;-68
2022/06/17 07:00:50;;;;;;;12.48;6.38;;;20.60;99.90;;;;;;4842439;29;20186;-68
2022/06/17 07:03:17;;;;;;;17.90;6.88;;;20.80;99.90;;;;;;4840554;29;20190;-64
2022/06/17 07:05:48;;;;;;;15.60;7.00;;;21.10;99.90;;;;;;4842833;29;20275;-64
2022/06/17 07:08:16;;;;;;;15.52;6.88;;;21.40;99.90;;;;;;4841955;29;20237;-64
2022/06/17 07:10:43;;;;;;;10.02;6.28;;;21.80;99.90;;;;;;4842876;29;20277;-63
2022/06/17 07:13:10;;;;;;;16.92;7.03;;;22.10;99.90;;;;;;4838343;29;20530;-63
2022/06/17 07:15:37;;;;;;;12.93;5.82;;;22.30;99.90;;;;;;4829426;29;20245;-59
2022/06/17 07:18:05;;;;;;;8.38;5.05;;;22.20;99.90;;;;;;4860939;29;20195;-65
2022/06/17 07:20:37;;;;;;;15.07;5.38;;;21.90;99.90;;;;;;4860543;29;20296;-62
2022/06/17 07:23:05;;;;;;;10.15;5.53;;;21.70;99.90;;;;;;4860287;29;20259;-69
2022/06/17 07:25:31;;;;;;;15.48;5.05;;;21.70;99.90;;;;;;4860794;29;20661;-65
2022/06/17 07:27:57;;;;;;;10.95;5.57;;;21.80;99.90;;;;;;4856942;29;20221;-64
2022/06/17 07:30:23;;;;;;;10.93;5.05;;;22.10;99.90;;;;;;4825214;29;20201;-55
2022/06/17 07:32:49;;;;;;;9.77;4.63;;;22.00;99.90;;;;;;4842335;29;20719;-62
2022/06/17 07:35:16;;;;;;;14.52;5.95;;;22.00;99.90;;;;;;4841905;29;20234;-63
2022/06/17 07:40:28;;;;;;;10.60;5.47;;;22.10;99.90;;;;;;4842109;29;20211;-60
2022/06/17 07:42:55;;;;;;;9.20;5.40;;;22.30;99.90;;;;;;4822256;29;20561;-60
2022/06/17 07:45:23;;;;;;;8.90;5.20;;;21.90;99.90;;;;;;4823519;29;20179;-60
2022/06/17 07:47:49;;;;;;;10.00;5.55;;;21.60;99.90;;;;;;4823609;29;20269;-61
2022/06/17 07:50:19;;;;;;;12.35;5.60;;;21.70;99.90;;;;;;4823866;29;20631;-62
2022/06/17 07:52:46;;;;;;;8.30;5.25;;;21.60;99.90;;;;;;4822851;29;20273;-61
2022/06/17 07:55:13;;;;;;;11.02;6.22;;;21.50;99.90;;;;;;4828272;29;20213;-63
2022/06/17 07:57:39;;;;;;;12.48;5.40;;;21.60;99.90;;;;;;4838786;29;20686;-59
2022/06/17 08:00:08;;;;;;;17.98;4.80;;;22.00;99.90;;;;;;4841406;29;20324;-62
2022/06/17 08:02:33;;;;;;;15.20;5.18;;;22.10;99.90;;;;;;4841410;29;20178;-60
2022/06/17 08:04:59;;;;;;;13.68;5.85;;;22.10;99.90;;;;;;4841868;29;20214;-61
2022/06/17 08:07:25;;;;;;;12.52;5.05;;;22.40;99.90;;;;;;4841366;29;20233;-61
2022/06/17 08:09:50;;;;;;;9.50;5.20;;;22.50;99.90;;;;;;4841824;29;20202;-61
2022/06/17 08:12:16;;;;;;;9.73;4.72;;;22.20;99.90;;;;;;4830400;29;20672;-62
2022/06/17 08:14:46;;;;;;;7.32;4.82;;;22.20;99.90;;;;;;4859836;29;20189;-61
2022/06/17 08:17:14;;;;;;;15.07;5.15;;;21.90;99.90;;;;;;4859520;29;20193;-63
2022/06/17 08:19:43;;;;;;;9.55;4.90;;;21.90;99.90;;;;;;4859647;29;20185;-64
2022/06/17 08:22:09;;;;;;;11.20;5.57;;;21.80;99.90;;;;;;4859053;29;20268;-66
2022/06/17 08:24:35;;;;;;;11.48;4.10;;;21.90;99.90;;;;;;4843034;29;20212;-65
2022/06/17 08:27:02;;;;;;;22.85;5.35;;;22.00;99.90;;;;;;4859440;29;20250;-64
2022/06/17 08:29:28;;;;;;;10.13;4.10;;;22.20;99.90;;;;;;4859620;29;20680;-61
2022/06/17 08:31:55;;;;;;;10.43;4.18;;;22.50;99.90;;;;;;4859714;29;20207;-63
2022/06/17 08:34:21;;;;;;;14.20;4.40;;;23.00;99.90;;;;;;4858983;29;20193;-60
2022/06/17 08:36:48;;;;;;;7.57;3.78;;;23.60;98.80;;;;;;4854272;29;20210;-62
2022/06/17 08:39:15;;;;;;;6.80;4.07;;;23.60;98.20;;;;;;4840594;29;20337;-60
2022/06/17 08:42:20;;;;;;;7.40;3.72;;;23.60;98.00;;;;;;4841004;29;20711;-60
2022/06/17 08:44:55;;;;;;;11.00;4.18;;;23.70;97.40;;;;;;4803749;29;20189;-60
2022/06/17 08:47:37;;;;;;;10.18;4.32;;;24.20;96.70;;;;;;4840621;29;20204;-63
2022/06/17 08:50:10;;;;;;;10.15;4.45;;;24.10;96.60;;;;;;4839787;29;20269;-63
2022/06/17 08:53:21;;;;;;;8.15;3.72;;;23.90;96.70;;;;;;4840439;29;20292;-60
2022/06/17 08:56:02;;;;;;;9.23;3.97;;;23.60;97.50;;;;;;4841034;29;20221;-60
2022/06/17 08:58:49;;;;;;;7.90;4.03;;;23.60;97.90;;;;;;4840556;29;20422;-62
2022/06/17 09:01:15;;;;;;;8.25;4.00;;;23.60;98.10;;;;;;4838330;29;20541;-64
2022/06/17 09:03:49;;;;;;;11.38;4.18;;;23.10;99.30;;;;;;4822692;29;20193;-59
2022/06/17 09:06:42;;;;;;;7.38;3.63;;;22.80;99.40;;;;;;4821776;29;20266;-61
2022/06/17 09:09:21;;;;;;;8.43;3.38;;;22.40;99.90;;;;;;4821908;29;20657;-63
2022/06/17 09:12:08;;;;;;;14.50;4.07;;;22.20;99.90;;;;;;4841384;29;20185;-61
2022/06/17 09:14:36;;;;;;;15.75;4.35;;;22.20;99.90;;;;;;4857041;29;20184;-61
2022/06/17 09:17:02;;;;;;;11.15;4.25;;;22.40;99.90;;;;;;4857773;29;20280;-61
2022/06/17 09:19:33;;;;;;;13.65;4.93;;;22.70;99.90;;;;;;4856973;29;20623;-62
2022/06/17 09:22:16;;;;;;;8.70;3.92;;;22.60;99.90;;;;;;4840581;29;20181;-61
2022/06/17 09:24:43;;;;;;;11.38;3.90;;;22.70;99.90;;;;;;4857603;29;20638;-60
2022/06/17 09:27:18;;;;;;;8.95;4.30;;;22.70;99.90;;;;;;4857677;29;20289;-61
2022/06/17 09:30:01;;;;;;;6.57;4.22;;;22.50;99.90;;;;;;4859054;29;20243;-62
2022/06/17 09:32:43;;;;;;;7.38;4.18;;;22.50;99.90;;;;;;4847677;29;20299;-61
2022/06/17 09:35:23;;;;;;;5.97;3.78;;;22.70;99.90;;;;;;4839889;29;20245;-65
2022/06/17 09:38:02;;;;;;;7.38;4.05;;;22.90;99.90;;;;;;4839950;29;20245;-65
2022/06/17 09:41:14;;;;;;;6.35;3.70;;;23.10;99.70;;;;;;4839522;29;20206;-60
2022/06/17 09:43:53;;;;;;;6.93;3.78;;;23.20;99.50;;;;;;4821089;29;20665;-60
2022/06/17 09:46:45;;;;;;;7.93;4.53;;;23.70;99.00;;;;;;4839285;29;20188;-62
2022/06/17 09:49:51;;;;;;;9.05;4.60;;;24.20;97.60;;;;;;4839889;29;20275;-61
2022/06/17 09:52:35;;;;;;;4.90;3.80;;;24.70;96.70;;;;;;4839665;29;20177;-60
2022/06/17 09:55:16;;;;;;;8.15;4.25;;;24.30;96.40;;;;;;4839672;29;20229;-61
2022/06/17 09:57:48;;;;;;;5.38;3.65;;;23.50;97.60;;;;;;4839727;29;20220;-61
2022/06/17 10:00:20;;;;;;;8.95;4.63;;;23.20;98.20;;;;;;4839076;29;20207;-59
2022/06/17 10:03:03;;;;;;;9.05;4.85;;;23.30;98.90;;;;;;4839594;29;20190;-60
2022/06/17 10:05:36;;;;;;;10.23;4.97;;;23.40;98.80;;;;;;4839504;29;20190;-59
2022/06/17 10:08:23;;;;;;;10.77;4.40;;;23.50;99.00;;;;;;4839595;29;20285;-61
2022/06/17 10:10:58;;;;;;;4.97;3.80;;;23.30;97.80;;;;;;4840009;29;20280;-60
2022/06/17 10:13:40;;;;;;;10.23;4.18;;;23.50;97.60;;;;;;4854111;29;20196;-63
2022/06/17 10:19:40;;;;;;;11.73;4.32;;;23.30;97.20;;;;;;4861604;29;20200;-61
2022/06/17 10:22:35;;;;;;;10.10;4.32;;;22.80;98.50;;;;;;4861468;29;20207;-78
2022/06/17 10:25:19;;;;;;;6.38;3.70;;;22.40;99.60;;;;;;4861892;29;20185;-63
2022/06/17 10:27:45;;;;;;;27.17;7.50;;;22.40;99.90;;;;;;4861813;29;20212;-61
2022/06/17 10:30:16;;;;;;;9.30;4.22;;;22.30;99.90;;;;;;4862458;29;20240;-61
2022/06/17 10:32:47;;;;;;;19.52;5.47;;;22.40;99.90;;;;;;4849070;29;20193;-62
2022/06/17 10:35:28;;;;;;;9.07;3.88;;;22.30;99.90;;;;;;4842564;29;20218;-61
2022/06/17 10:37:56;;;;;;;19.25;5.20;;;22.40;99.90;;;;;;4826304;29;20201;-61
2022/06/17 10:40:25;;;;;;;9.52;4.57;;;22.30;99.90;;;;;;4842676;29;20635;-62
2022/06/17 10:42:55;;;;;;;8.10;4.20;;;22.30;99.90;;;;;;4842710;29;20182;-62
2022/06/17 10:45:21;;;;;;;8.18;4.30;;;22.00;99.90;;;;;;4842363;29;20676;-59
2022/06/17 10:48:17;;;;;;;7.10;4.38;;;21.60;99.90;;;;;;4843226;29;20221;-62
2022/06/17 10:50:43;;;;;;;11.93;5.38;;;21.30;99.90;;;;;;4807237;29;20205;-60
2022/06/17 10:53:31;;;;;;;9.82;4.68;;;21.20;99.90;;;;;;4842246;29;20285;-60
2022/06/17 10:56:01;;;;;;;7.30;4.53;;;21.10;99.90;;;;;;4842846;29;20206;-60
2022/06/17 10:58:30;;;;;;;6.90;4.82;;;20.70;99.90;;;;;;4825727;29;20281;-63
2022/06/17 11:01:10;;;;;;;19.90;5.97;;;20.50;99.90;;;;;;4841561;29;20221;-60
2022/06/17 11:03:38;;;;;;;9.00;5.15;;;20.40;99.90;;;;;;4824047;29;20552;-60
2022/06/17 11:06:04;;;;;;;11.63;5.10;;;20.20;99.90;;;;;;4823907;29;20270;-61
2022/06/17 11:08:48;;;;;;;9.85;5.35;;;20.20;99.90;;;;;;4824163;29;20314;-60
2022/06/17 11:14:03;;;;;;;8.10;5.30;;;19.80;99.90;;;;;;4842627;29;20196;-61
2022/06/17 11:16:36;;;;;;;9.90;4.97;;;19.80;99.90;;;;;;4842093;29;20288;-60
2022/06/17 11:19:05;;;;;;;11.65;5.45;;;19.60;99.90;;;;;;4841193;29;20643;-59
2022/06/17 11:21:44;;;;;;;10.20;5.70;;;19.70;99.90;;;;;;4841994;29;20635;-60
2022/06/17 11:24:44;;;;;;;6.95;4.80;;;20.10;99.90;;;;;;4826081;29;20193;-62
2022/06/17 11:27:35;;;;;;;11.40;6.68;;;20.20;99.90;;;;;;4837179;29;20313;-64
2022/06/17 11:30:27;;;;;;;12.63;5.25;;;20.40;99.90;;;;;;4842381;29;20244;-60
2022/06/17 11:32:55;;;;;;;8.10;4.70;;;20.60;99.90;;;;;;4842035;29;20292;-60
2022/06/17 11:35:34;;;;;;;9.52;5.20;;;20.80;99.90;;;;;;4841717;29;20640;-61
2022/06/17 11:38:12;;;;;;;6.80;4.55;;;21.40;99.90;;;;;;4842559;29;20190;-60
2022/06/17 11:40:49;;;;;;;7.25;4.88;;;21.70;99.90;;;;;;4842442;29;20177;-60
2022/06/17 11:43:32;;;;;;;12.70;5.43;;;21.70;99.90;;;;;;4841810;29;20619;-61
2022/06/17 11:46:13;;;;;;;7.60;4.75;;;22.10;99.90;;;;;;4842254;29;20221;-60
2022/06/17 11:48:42;;;;;;;9.98;5.10;;;22.50;99.90;;;;;;4842333;29;20233;-66
2022/06/17 11:51:17;;;;;;;4.53;3.85;;;22.70;99.90;;;;;;4841841;29;20188;-67
2022/06/17 11:53:51;;;;;;;4.82;3.72;;;22.70;99.90;;;;;;4841912;29;20176;-61
2022/06/17 11:56:35;;;;;;;11.40;5.10;;;22.10;99.90;;;;;;4841458;29;20185;-60
2022/06/17 11:59:14;;;;;;;9.90;4.63;;;21.80;99.90;;;;;;4841940;29;20186;-60
2022/06/17 12:01:42;;;;;;;8.75;4.60;;;21.60;99.90;;;;;;4841551;29;20225;-59
2022/06/17 12:04:46;;;;;;;14.85;6.10;;;21.40;99.90;;;;;;4841203;29;20340;-61
2022/06/17 12:07:35;;;;;;;11.10;5.40;;;22.20;99.90;;;;;;4819745;29;20234;-61
2022/06/17 12:10:32;;;;;;;9.40;5.72;;;22.30;99.90;;;;;;4834104;29;20628;-59
2022/06/17 12:13:13;;;;;;;7.07;3.67;;;23.20;99.90;;;;;;4840542;29;20185;-59
2022/06/17 12:15:44;;;;;;;9.05;4.05;;;24.80;98.70;;;;;;4834458;29;20662;-59
2022/06/17 12:18:23;;;;;;;13.90;4.63;;;25.10;96.80;;;;;;4822954;29;20194;-75
2022/06/17 12:21:32;;;;;;;5.57;3.50;;;24.30;98.20;;;;;;4832239;29;20197;-60
2022/06/17 12:24:09;;;;;;;6.05;3.70;;;24.30;97.60;;;;;;4835883;29;20209;-59
2022/06/17 12:26:40;;;;;;;6.53;3.50;;;23.70;98.70;;;;;;4824827;29;20220;-64
2022/06/17 12:29:22;;;;;;;7.68;3.15;;;23.80;98.20;;;;;;4832728;29;20710;-60
2022/06/17 12:32:22;;;;;;;7.90;3.20;;;24.30;96.90;;;;;;4827732;29;20240;-62
2022/06/17 12:35:11;;;;;;;4.50;3.15;;;24.00;96.80;;;;;;4822667;29;20205;-60
2022/06/17 12:38:04;;;;;;;7.32;3.40;;;24.10;97.10;;;;;;4831091;29;20234;-60
2022/06/17 12:40:53;;;;;;;4.15;3.13;;;23.50;98.20;;;;;;4822694;29;20273;-60
2022/06/17 12:43:41;;;;;;;9.75;3.28;;;23.30;99.00;;;;;;4822661;29;20646;-61
2022/06/17 12:46:34;;;;;;;6.68;3.05;;;24.50;98.80;;;;;;4818915;29;20194;-60
2022/06/17 12:55:17;;;;;;;8.55;3.85;;;29.70;84.20;;;;;;4822711;29;20193;-60
2022/06/17 12:58:16;;;;;;;7.32;3.72;;;27.60;84.90;;;;;;4835923;29;20233;-60
2022/06/17 13:01:07;;;;;;;7.65;3.88;;;27.70;87.60;;;;;;4823258;29;20202;-61
2022/06/17 13:03:57;;;;;;;9.82;3.75;;;27.70;86.80;;;;;;4822074;29;20197;-59
2022/06/17 13:06:37;;;;;;;7.40;3.45;;;26.00;90.50;;;;;;4830661;29;20268;-60
2022/06/17 13:09:15;;;;;;;5.93;1.95;;;25.00;92.10;;;;;;4827308;29;20553;-60
2022/06/17 13:11:52;;;;;;;8.05;1.60;;;25.30;91.30;;;;;;4839579;29;20295;-60
2022/06/17 13:14:55;;;;;;;2.03;1.30;;;27.20;84.90;;;;;;4840478;29;20273;-64
2022/06/17 13:17:33;;;;;;;2.67;1.40;;;27.80;80.70;;;;;;4821770;29;20221;-60
2022/06/17 13:20:16;;;;;;;6.20;1.50;;;28.50;77.50;;;;;;4822277;29;20213;-60
2022/06/17 13:22:54;;;;;;;2.08;1.48;;;28.60;75.20;;;;;;4839382;29;21650;-59
2022/06/17 13:25:41;;;;;;;6.28;1.65;;;29.40;74.80;;;;;;4838649;29;20189;-59
2022/06/17 13:28:06;;;;;;;2.00;1.52;;;31.50;66.90;;;;;;4833634;29;20224;-75